createdAt,value
2024-04-24T00:00:10.162Z,101259.41
2024-04-24T00:02:37.035Z,101255.09
2024-04-24T00:05:05.627Z,101254.28
2024-04-24T00:07:32.778Z,101254.28
2024-04-24T00:09:59.439Z,101245.66
2024-04-24T00:12:26.004Z,101247.22
2024-04-24T00:14:52.665Z,101251.53
2024-04-24T00:17:19.483Z,101251.91
2024-04-24T00:19:46.237Z,101244.88
2024-04-24T00:22:12.901Z,101249.56
2024-04-24T00:24:39.512Z,101245.63
2024-04-24T00:27:06.117Z,101244.47
2024-04-24T00:29:32.759Z,101245.63
2024-04-24T00:32:06.429Z,101249.53
2024-04-24T00:34:34.215Z,101247.97
2024-04-24T00:37:00.966Z,101247.97
2024-04-24T00:39:27.626Z,101244.44
2024-04-24T00:41:54.315Z,101222.88
2024-04-24T00:44:20.977Z,101218.56
2024-04-24T00:46:47.887Z,101216.19
2024-04-24T00:49:15.951Z,101215.41
2024-04-24T00:51:44.518Z,101205.63
2024-04-24T00:54:11.634Z,101205.63
2024-04-24T00:56:38.314Z,101193.03
2024-04-24T00:59:05.229Z,101190.69
2024-04-24T01:01:31.908Z,101181.28
2024-04-24T01:03:58.627Z,101178.09
2024-04-24T01:06:25.258Z,101177.75
2024-04-24T01:08:51.985Z,101173.78
2024-04-24T01:11:18.744Z,101173.41
2024-04-24T01:13:45.484Z,101166.72
2024-04-24T01:16:24.709Z,101172.19
2024-04-24T01:19:03.032Z,101171.81
2024-04-24T01:21:54.695Z,101171.81
2024-04-24T01:24:30.819Z,101170.22
2024-04-24T01:26:58.146Z,101162.00
2024-04-24T01:29:24.898Z,101161.59
2024-04-24T01:31:51.600Z,101161.59
2024-04-24T01:34:18.299Z,101160.81
2024-04-24T01:36:44.960Z,101158.47
2024-04-24T01:39:11.551Z,101152.97
2024-04-24T01:41:38.202Z,101156.91
2024-04-24T01:44:04.857Z,101157.25
2024-04-24T01:46:31.550Z,101154.91
2024-04-24T01:48:58.237Z,101151.38
2024-04-24T01:51:24.831Z,101142.75
2024-04-24T01:53:52.411Z,101140.81
2024-04-24T01:56:19.215Z,101131.00
2024-04-24T01:58:46.302Z,101137.66
2024-04-24T02:01:12.982Z,101132.56
2024-04-24T02:03:39.637Z,101140.00
2024-04-24T02:06:07.040Z,101125.88
2024-04-24T02:08:35.592Z,101133.31
2024-04-24T02:11:02.746Z,101123.53
2024-04-24T02:13:29.374Z,101130.19
2024-04-24T02:15:55.973Z,101127.81
2024-04-24T02:18:22.722Z,101119.19
2024-04-24T02:20:49.597Z,101112.13
2024-04-24T02:23:21.700Z,101115.69
2024-04-24T02:25:49.989Z,101111.34
2024-04-24T02:28:16.803Z,101108.97
2024-04-24T02:30:43.433Z,101112.50
2024-04-24T02:33:10.231Z,101110.94
2024-04-24T02:35:37.133Z,101114.06
2024-04-24T02:38:04.090Z,101108.59
2024-04-24T02:40:30.738Z,101090.19
2024-04-24T02:42:57.405Z,101096.06
2024-04-24T02:45:23.997Z,101089.38
2024-04-24T02:47:50.735Z,101092.13
2024-04-24T02:50:17.468Z,101087.00
2024-04-24T02:52:44.152Z,101093.31
2024-04-24T02:55:10.839Z,101082.34
2024-04-24T02:57:37.473Z,101085.44
2024-04-24T03:00:04.491Z,101075.25
2024-04-24T03:02:31.180Z,101061.16
2024-04-24T03:04:57.935Z,101067.41
2024-04-24T03:07:24.574Z,101067.03
2024-04-24T03:09:51.187Z,101058.81
2024-04-24T03:12:17.942Z,101059.19
2024-04-24T03:14:46.639Z,101052.94
2024-04-24T03:17:13.566Z,101053.31
2024-04-24T03:19:40.293Z,101058.38
2024-04-24T03:22:06.887Z,101057.59
2024-04-24T03:24:33.820Z,101059.16
2024-04-24T03:27:00.538Z,101052.50
2024-04-24T03:29:27.311Z,101050.53
2024-04-24T03:31:54.059Z,101033.31
2024-04-24T03:34:20.749Z,101035.25
2024-04-24T03:36:47.371Z,101030.97
2024-04-24T03:39:14.304Z,101030.56
2024-04-24T03:41:41.080Z,101018.81
2024-04-24T03:44:07.796Z,101015.28
2024-04-24T03:46:34.509Z,101027.41
2024-04-24T03:49:01.243Z,101014.88
2024-04-24T03:51:27.997Z,101014.88
2024-04-24T03:53:54.643Z,101016.03
2024-04-24T03:56:21.336Z,101014.47
2024-04-24T03:58:48.120Z,101010.16
2024-04-24T04:01:15.793Z,101004.69
2024-04-24T04:03:42.606Z,101005.84
2024-04-24T04:06:09.223Z,100996.06
2024-04-24T04:08:35.835Z,101002.34
2024-04-24T04:11:03.385Z,100994.09
2024-04-24T04:13:30.030Z,100996.44
2024-04-24T04:15:56.723Z,100994.06
2024-04-24T04:18:23.512Z,100987.81
2024-04-24T04:20:50.204Z,100982.31
2024-04-24T04:23:16.910Z,100990.16
2024-04-24T04:25:43.648Z,100981.16
2024-04-24T04:28:10.284Z,100980.38
2024-04-24T04:30:36.907Z,100976.06
2024-04-24T04:33:03.760Z,100975.66
2024-04-24T04:35:30.459Z,100972.53
2024-04-24T04:37:57.085Z,100974.88
2024-04-24T04:40:23.740Z,100977.63
2024-04-24T04:42:50.676Z,100980.72
2024-04-24T04:45:18.416Z,100974.47
2024-04-24T04:47:45.210Z,100981.13
2024-04-24T04:50:12.045Z,100978.75
2024-04-24T04:52:38.753Z,100980.34
2024-04-24T04:55:05.643Z,100978.75
2024-04-24T04:57:32.275Z,100988.16
2024-04-24T04:59:58.940Z,100979.16
2024-04-24T05:02:25.721Z,100980.31
2024-04-24T05:04:52.579Z,100974.06
2024-04-24T05:07:19.252Z,100972.50
2024-04-24T05:09:45.887Z,100967.00
2024-04-24T05:12:12.539Z,100968.59
2024-04-24T05:14:39.193Z,100961.94
2024-04-24T05:17:06.023Z,100959.19
2024-04-24T05:19:32.675Z,100961.53
2024-04-24T05:21:59.349Z,100955.63
2024-04-24T05:24:26.008Z,100950.16
2024-04-24T05:27:12.856Z,100945.06
2024-04-24T05:29:39.433Z,100952.13
2024-04-24T05:32:06.100Z,100946.25
2024-04-24T05:34:32.742Z,100945.06
2024-04-24T05:36:59.422Z,100947.81
2024-04-24T05:39:26.026Z,100947.03
2024-04-24T05:41:52.684Z,100937.22
2024-04-24T05:44:19.781Z,100937.66
2024-04-24T05:46:46.556Z,100938.84
2024-04-24T05:49:13.266Z,100934.53
2024-04-24T05:51:39.912Z,100933.38
2024-04-24T05:54:06.566Z,100931.44
2024-04-24T05:56:33.210Z,100932.25
2024-04-24T05:59:00.039Z,100930.28
2024-04-24T06:01:26.768Z,100924.03
2024-04-24T06:03:53.428Z,100929.16
2024-04-24T06:06:20.069Z,100922.09
2024-04-24T06:08:46.697Z,100920.16
2024-04-24T06:11:13.610Z,100916.66
2024-04-24T06:13:40.368Z,100912.38
2024-04-24T06:16:07.344Z,100914.72
2024-04-24T06:18:34.075Z,100906.88
2024-04-24T06:21:00.802Z,100908.47
2024-04-24T06:23:27.456Z,100901.03
2024-04-24T06:25:54.202Z,100899.06
2024-04-24T06:28:21.766Z,100894.38
2024-04-24T06:30:48.587Z,100896.31
2024-04-24T06:33:15.327Z,100892.38
2024-04-24T06:35:42.117Z,100893.16
2024-04-24T06:38:09.436Z,100891.97
2024-04-24T06:40:36.228Z,100891.56
2024-04-24T06:43:03.870Z,100886.03
2024-04-24T06:45:30.548Z,100886.41
2024-04-24T06:47:57.299Z,100891.09
2024-04-24T06:50:24.029Z,100886.00
2024-04-24T06:52:50.778Z,100878.50
2024-04-24T06:55:18.381Z,100881.25
2024-04-24T06:57:45.023Z,100874.56
2024-04-24T07:00:11.934Z,100874.53
2024-04-24T07:02:38.607Z,100867.84
2024-04-24T07:05:05.619Z,100866.63
2024-04-24T07:07:32.379Z,100866.63
2024-04-24T07:09:59.034Z,100859.91
2024-04-24T07:12:25.724Z,100861.84
2024-04-24T07:14:52.599Z,100866.91
2024-04-24T07:17:19.300Z,100868.88
2024-04-24T07:19:45.954Z,100866.09
2024-04-24T07:22:12.574Z,100863.34
2024-04-24T07:24:39.241Z,100862.16
2024-04-24T07:27:05.853Z,100856.25
2024-04-24T07:29:32.766Z,100857.03
2024-04-24T07:31:59.492Z,100854.25
2024-04-24T07:34:26.322Z,100858.19
2024-04-24T07:36:52.947Z,100860.53
2024-04-24T07:39:19.620Z,100848.75
2024-04-24T07:41:46.288Z,100851.50
2024-04-24T07:44:13.210Z,100854.25
2024-04-24T07:46:39.922Z,100853.88
2024-04-24T07:49:06.545Z,100849.16
2024-04-24T07:51:33.174Z,100849.53
2024-04-24T07:53:59.833Z,100847.59
2024-04-24T07:56:26.542Z,100857.41
2024-04-24T07:58:53.314Z,100864.09
2024-04-24T08:01:22.599Z,100865.28
2024-04-24T08:03:49.644Z,100872.75
2024-04-24T08:06:16.454Z,100869.22
2024-04-24T08:08:43.203Z,100866.09
2024-04-24T08:11:09.892Z,100865.72
2024-04-24T08:13:36.660Z,100867.69
2024-04-24T08:16:03.507Z,100857.88
2024-04-24T08:18:30.195Z,100861.78
2024-04-24T08:20:57.637Z,100855.09
2024-04-24T08:23:26.805Z,100844.88
2024-04-24T08:25:55.446Z,100851.16
2024-04-24T08:28:32.635Z,100850.34
2024-04-24T08:31:05.515Z,100847.59
2024-04-24T08:33:33.493Z,100844.44
2024-04-24T08:36:03.083Z,100851.50
2024-04-24T08:38:30.343Z,100849.16
2024-04-24T08:41:09.826Z,100854.66
2024-04-24T08:43:39.078Z,100847.19
2024-04-24T08:46:07.642Z,100844.03
2024-04-24T08:48:36.249Z,100849.53
2024-04-24T08:51:03.613Z,100844.03
2024-04-24T08:53:32.826Z,100834.63
2024-04-24T08:56:00.790Z,100837.78
2024-04-24T08:58:31.044Z,100836.22
2024-04-24T09:01:04.851Z,100837.41
2024-04-24T09:03:43.077Z,100835.47
2024-04-24T09:06:11.109Z,100833.91
2024-04-24T09:08:38.592Z,100829.19
2024-04-24T09:11:05.668Z,100831.16
2024-04-24T09:13:34.085Z,100822.91
2024-04-24T09:16:01.755Z,100824.09
2024-04-24T09:18:28.517Z,100816.25
2024-04-24T09:20:56.599Z,100817.41
2024-04-24T09:23:25.618Z,100825.66
2024-04-24T09:25:52.889Z,100811.53
2024-04-24T09:28:20.494Z,100819.78
2024-04-24T09:30:47.433Z,100813.50
2024-04-24T09:33:14.603Z,100814.31
2024-04-24T09:35:41.492Z,100811.16
2024-04-24T09:38:08.468Z,100817.84
2024-04-24T09:40:36.136Z,100809.59
2024-04-24T09:43:03.937Z,100807.25
2024-04-24T09:45:30.888Z,100809.25
2024-04-24T09:47:57.990Z,100813.16
2024-04-24T09:50:25.779Z,100810.78
2024-04-24T09:52:52.707Z,100803.34
2024-04-24T09:55:23.140Z,100808.41
2024-04-24T09:57:55.987Z,100808.81
2024-04-24T10:00:22.961Z,100806.84
2024-04-24T10:02:53.514Z,100814.31
2024-04-24T10:05:23.982Z,100804.50
2024-04-24T10:07:56.820Z,100790.00
2024-04-24T10:10:36.083Z,100798.25
2024-04-24T10:13:04.875Z,100790.00
2024-04-24T10:15:41.296Z,100771.53
2024-04-24T10:18:09.984Z,100782.13
2024-04-24T10:20:41.538Z,100789.59
2024-04-24T10:23:08.496Z,100813.53
2024-04-24T10:25:36.328Z,100839.06
2024-04-24T10:28:06.949Z,100822.97
2024-04-24T10:30:37.580Z,100824.19
2024-04-24T10:33:06.851Z,100823.41
2024-04-24T10:35:35.098Z,100820.66
2024-04-24T10:38:06.136Z,100812.81
2024-04-24T10:40:33.492Z,100808.09
2024-04-24T10:43:02.029Z,100800.25
2024-04-24T10:45:29.592Z,100799.44
2024-04-24T10:47:57.529Z,100790.78
2024-04-24T10:50:28.915Z,100779.00
2024-04-24T10:52:58.809Z,100780.97
2024-04-24T10:55:25.462Z,100799.41
2024-04-24T10:57:54.411Z,100793.53
2024-04-24T11:00:23.093Z,100786.84
2024-04-24T11:02:53.539Z,100784.13
2024-04-24T11:05:22.760Z,100778.63
2024-04-24T11:08:03.794Z,100778.63
2024-04-24T11:10:31.951Z,100774.31
2024-04-24T11:12:58.670Z,100784.91
2024-04-24T11:15:27.435Z,100768.41
2024-04-24T11:17:54.272Z,100776.66
2024-04-24T11:20:28.643Z,100777.06
2024-04-24T11:22:55.714Z,100775.13
2024-04-24T11:25:22.443Z,100764.13
2024-04-24T11:27:49.085Z,100768.06
2024-04-24T11:30:17.427Z,100767.28
2024-04-24T11:32:47.956Z,100776.28
2024-04-24T11:35:16.264Z,100770.81
2024-04-24T11:37:44.266Z,100765.72
2024-04-24T11:40:12.139Z,100756.28
2024-04-24T11:42:52.076Z,100754.72
2024-04-24T11:45:22.809Z,100754.72
2024-04-24T11:47:52.097Z,100751.56
2024-04-24T11:50:20.178Z,100753.13
2024-04-24T11:52:47.266Z,100746.06
2024-04-24T11:55:13.966Z,100743.69
2024-04-24T11:57:41.139Z,100745.66
2024-04-24T12:00:08.671Z,100735.44
2024-04-24T12:02:36.040Z,100738.97
2024-04-24T12:05:07.620Z,100753.91
2024-04-24T12:07:34.735Z,100766.44
2024-04-24T12:10:02.591Z,100789.25
2024-04-24T12:12:30.072Z,100767.66
2024-04-24T12:14:58.121Z,100779.03
2024-04-24T12:17:25.145Z,100772.78
2024-04-24T12:19:51.920Z,100770.44
2024-04-24T12:22:21.460Z,100766.50
2024-04-24T12:24:48.047Z,100748.03
2024-04-24T12:27:14.642Z,100753.53
2024-04-24T12:29:41.277Z,100743.31
2024-04-24T12:32:08.296Z,100749.22
2024-04-24T12:34:34.993Z,100750.00
2024-04-24T12:37:01.650Z,100751.97
2024-04-24T12:39:28.234Z,100764.94
2024-04-24T12:41:55.015Z,100747.25
2024-04-24T12:44:21.709Z,100751.97
2024-04-24T12:46:49.425Z,100759.03
2024-04-24T12:49:16.103Z,100749.59
2024-04-24T12:51:42.878Z,100755.88
2024-04-24T12:54:09.505Z,100742.53
2024-04-24T12:56:36.189Z,100746.00
2024-04-24T12:59:02.872Z,100751.50
2024-04-24T13:01:29.536Z,100743.59
2024-04-24T13:03:56.309Z,100752.63
2024-04-24T13:06:24.391Z,100756.56
2024-04-24T13:08:51.349Z,100752.63
2024-04-24T13:11:18.240Z,100748.28
2024-04-24T13:13:44.918Z,100748.66
2024-04-24T13:16:11.584Z,100741.97
2024-04-24T13:18:38.567Z,100743.91
2024-04-24T13:21:05.588Z,100745.88
2024-04-24T13:23:32.322Z,100736.78
2024-04-24T13:25:59.085Z,100737.16
2024-04-24T13:28:25.760Z,100744.63
2024-04-24T13:30:52.374Z,100739.91
2024-04-24T13:33:19.501Z,100726.16
2024-04-24T13:35:48.728Z,100735.19
2024-04-24T13:38:16.869Z,100731.25
2024-04-24T13:40:43.536Z,100759.56
2024-04-24T13:43:10.193Z,100771.78
2024-04-24T13:45:36.799Z,100760.41
2024-04-24T13:48:04.842Z,100756.88
2024-04-24T13:50:31.813Z,100754.53
2024-04-24T13:52:58.576Z,100757.28
2024-04-24T13:55:25.229Z,100749.81
2024-04-24T13:57:51.834Z,100751.38
2024-04-24T14:00:18.769Z,100752.94
2024-04-24T14:02:45.631Z,100744.69
2024-04-24T14:05:12.521Z,100739.59
2024-04-24T14:07:42.167Z,100755.28
2024-04-24T14:10:08.914Z,100751.38
2024-04-24T14:12:35.509Z,100755.25
2024-04-24T14:15:02.077Z,100749.34
2024-04-24T14:17:31.110Z,100746.56
2024-04-24T14:19:58.015Z,100748.09
2024-04-24T14:22:24.710Z,100750.81
2024-04-24T14:24:51.615Z,100741.34
2024-04-24T14:27:18.346Z,100749.56
2024-04-24T14:29:45.159Z,100753.06
2024-04-24T14:32:11.956Z,100752.63
2024-04-24T14:34:38.775Z,100745.13
2024-04-24T14:37:06.100Z,100751.38
2024-04-24T14:39:32.970Z,100743.13
2024-04-24T14:42:01.746Z,100744.63
2024-04-24T14:44:29.059Z,100735.16
2024-04-24T14:46:55.807Z,100755.19
2024-04-24T14:49:22.552Z,100737.06
2024-04-24T14:51:49.349Z,100744.50
2024-04-24T14:54:15.988Z,100742.50
2024-04-24T14:56:44.409Z,100767.66
2024-04-24T14:59:11.139Z,100771.19
2024-04-24T15:01:37.884Z,100775.13
2024-04-24T15:04:05.441Z,100771.19
2024-04-24T15:06:34.907Z,100769.19
2024-04-24T15:09:01.567Z,100766.03
2024-04-24T15:11:28.668Z,100773.09
2024-04-24T15:13:55.449Z,100766.81
2024-04-24T15:16:22.208Z,100768.41
2024-04-24T15:18:49.244Z,100782.53
2024-04-24T15:21:15.954Z,100770.69
2024-04-24T15:23:46.276Z,100776.19
2024-04-24T15:26:14.543Z,100771.47
2024-04-24T15:28:41.227Z,100768.28
2024-04-24T15:31:08.681Z,100765.94
2024-04-24T15:33:35.576Z,100757.69
2024-04-24T15:36:02.221Z,100744.28
2024-04-24T15:38:28.995Z,100757.22
2024-04-24T15:40:55.986Z,100763.84
2024-04-24T15:43:22.692Z,100760.31
2024-04-24T15:45:49.994Z,100758.41
2024-04-24T15:48:16.942Z,100767.84
2024-04-24T15:50:43.598Z,100756.47
2024-04-24T15:53:10.283Z,100764.75
2024-04-24T15:55:36.904Z,100760.81
2024-04-24T15:58:03.609Z,100758.06
2024-04-24T16:00:30.358Z,100770.28
2024-04-24T16:02:57.012Z,100765.19
2024-04-24T16:05:23.794Z,100756.91
2024-04-24T16:07:50.583Z,100760.09
2024-04-24T16:10:17.407Z,100745.19
2024-04-24T16:12:44.295Z,100736.53
2024-04-24T16:15:11.196Z,100747.53
2024-04-24T16:17:38.335Z,100746.75
2024-04-24T16:20:05.862Z,100751.88
2024-04-24T16:22:32.508Z,100758.16
2024-04-24T16:24:59.147Z,100759.72
2024-04-24T16:27:25.980Z,100756.59
2024-04-24T16:29:52.660Z,100760.13
2024-04-24T16:32:19.426Z,100760.13
2024-04-24T16:34:46.222Z,100755.81
2024-04-24T16:37:13.085Z,100760.13
2024-04-24T16:39:41.655Z,100760.53
2024-04-24T16:42:08.455Z,100760.94
2024-04-24T16:44:35.439Z,100763.69
2024-04-24T16:47:02.254Z,100765.66
2024-04-24T16:49:33.402Z,100752.31
2024-04-24T16:52:01.462Z,100755.50
2024-04-24T16:54:28.125Z,100761.00
2024-04-24T16:56:54.760Z,100762.59
2024-04-24T16:59:21.434Z,100756.28
2024-04-24T17:01:48.059Z,100750.41
2024-04-24T17:04:14.816Z,100749.28
2024-04-24T17:06:41.476Z,100762.25
2024-04-24T17:09:08.245Z,100768.19
2024-04-24T17:11:35.973Z,100756.00
2024-04-24T17:14:03.578Z,100748.94
2024-04-24T17:16:30.412Z,100754.84
2024-04-24T17:18:59.345Z,100755.25
2024-04-24T17:21:26.035Z,100756.88
2024-04-24T17:23:53.530Z,100767.47
2024-04-24T17:26:29.640Z,100765.16
2024-04-24T17:29:01.915Z,100767.91
2024-04-24T17:31:28.776Z,100772.28
2024-04-24T17:33:55.396Z,100766.75
2024-04-24T17:36:22.543Z,100772.28
2024-04-24T17:38:49.221Z,100764.44
2024-04-24T17:41:15.877Z,100771.91
2024-04-24T17:43:42.474Z,100767.25
2024-04-24T17:46:09.093Z,100766.47
2024-04-24T17:48:36.397Z,100757.81
2024-04-24T17:51:04.994Z,100759.41
2024-04-24T17:53:31.832Z,100758.63
2024-04-24T17:55:58.592Z,100762.22
2024-04-24T17:58:27.041Z,100764.56
2024-04-24T18:00:54.733Z,100762.22
2024-04-24T18:03:22.206Z,100772.84
2024-04-24T18:05:49.792Z,100772.06
2024-04-24T18:08:19.315Z,100779.19
2024-04-24T18:10:46.219Z,100783.13
2024-04-24T18:13:16.011Z,100782.72
2024-04-24T18:15:46.445Z,100780.38
2024-04-24T18:18:18.232Z,100791.00
2024-04-24T18:20:44.994Z,100782.38
2024-04-24T18:23:12.232Z,100791.44
2024-04-24T18:25:38.921Z,100785.16
2024-04-24T18:28:05.804Z,100783.59
2024-04-24T18:30:32.462Z,100791.06
2024-04-24T18:33:03.625Z,100789.13
2024-04-24T18:35:30.815Z,100787.56
2024-04-24T18:37:57.512Z,100795.81
2024-04-24T18:40:24.175Z,100801.69
2024-04-24T18:42:50.977Z,100796.22
2024-04-24T18:45:17.727Z,100796.66
2024-04-24T18:47:44.733Z,100795.09
2024-04-24T18:50:11.435Z,100802.16
2024-04-24T18:52:38.767Z,100798.25
2024-04-24T18:55:06.296Z,100799.06
2024-04-24T18:57:33.155Z,100809.28
2024-04-24T19:00:00.368Z,100805.75
2024-04-24T19:02:27.293Z,100813.22
2024-04-24T19:04:53.916Z,100813.59
2024-04-24T19:07:20.622Z,100810.47
2024-04-24T19:09:47.287Z,100810.09
2024-04-24T19:12:13.884Z,100816.00
2024-04-24T19:14:40.615Z,100819.94
2024-04-24T19:17:07.354Z,100817.59
2024-04-24T19:19:34.056Z,100818.38
2024-04-24T19:22:00.739Z,100825.06
2024-04-24T19:24:27.926Z,100828.22
2024-04-24T19:26:54.727Z,100827.84
2024-04-24T19:29:21.387Z,100825.50
2024-04-24T19:31:48.124Z,100825.88
2024-04-24T19:34:14.809Z,100827.84
2024-04-24T19:36:41.458Z,100823.94
2024-04-24T19:39:08.050Z,100821.59
2024-04-24T19:41:34.911Z,100823.56
2024-04-24T19:44:03.757Z,100830.59
2024-04-24T19:46:31.948Z,100833.75
2024-04-24T19:48:58.588Z,100839.66
2024-04-24T19:51:25.178Z,100840.81
2024-04-24T19:53:54.813Z,100836.91
2024-04-24T19:56:21.555Z,100842.03
2024-04-24T19:58:48.237Z,100847.53
2024-04-24T20:01:17.506Z,100852.66
2024-04-24T20:03:44.304Z,100844.81
2024-04-24T20:06:11.570Z,100852.28
2024-04-24T20:08:38.497Z,100849.13
2024-04-24T20:11:06.771Z,100845.22
2024-04-24T20:13:34.940Z,100844.44
2024-04-24T20:16:03.054Z,100847.19
2024-04-24T20:18:29.864Z,100842.50
2024-04-24T20:20:56.591Z,100839.34
2024-04-24T20:23:23.234Z,100835.81
2024-04-24T20:25:52.125Z,100829.53
2024-04-24T20:28:18.807Z,100839.75
2024-04-24T20:30:45.589Z,100825.59
2024-04-24T20:33:12.434Z,100840.16
2024-04-24T20:35:39.311Z,100829.53
2024-04-24T20:38:06.003Z,100831.50
2024-04-24T20:40:32.836Z,100832.28
2024-04-24T20:42:59.674Z,100836.22
2024-04-24T20:45:26.294Z,100838.56
2024-04-24T20:47:53.075Z,100838.56
2024-04-24T20:50:19.929Z,100838.56
2024-04-24T20:52:46.563Z,100841.31
2024-04-24T20:55:13.251Z,100867.19
2024-04-24T20:57:39.881Z,100857.41
2024-04-24T21:00:07.369Z,100861.72
2024-04-24T21:02:34.602Z,100855.44
2024-04-24T21:05:01.466Z,100856.22
2024-04-24T21:07:28.214Z,100857.41
2024-04-24T21:09:56.143Z,100849.56
2024-04-24T21:12:22.866Z,100843.28
2024-04-24T21:14:49.906Z,100853.50
2024-04-24T21:17:17.875Z,100843.69
2024-04-24T21:19:44.651Z,100840.56
2024-04-24T21:22:11.288Z,100835.44
2024-04-24T21:24:37.932Z,100829.56
2024-04-24T21:27:04.893Z,100831.91
2024-04-24T21:29:31.677Z,100823.72
2024-04-24T21:31:58.389Z,100820.97
2024-04-24T21:34:25.088Z,100824.91
2024-04-24T21:36:51.755Z,100824.91
2024-04-24T21:39:18.462Z,100820.59
2024-04-24T21:41:45.332Z,100822.91
2024-04-24T21:44:12.235Z,100822.53
2024-04-24T21:46:38.975Z,100822.53
2024-04-24T21:49:05.694Z,100817.44
2024-04-24T21:51:32.346Z,100822.94
2024-04-24T21:53:59.056Z,100814.31
2024-04-24T21:56:25.930Z,100818.25
2024-04-24T21:58:56.366Z,100816.28
2024-04-24T22:01:23.096Z,100814.34
2024-04-24T22:03:49.925Z,100813.56
2024-04-24T22:06:20.386Z,100804.94
2024-04-24T22:08:48.500Z,100810.06
2024-04-24T22:11:15.286Z,100812.38
2024-04-24T22:13:41.938Z,100806.53
2024-04-24T22:16:08.781Z,100808.88
2024-04-24T22:18:36.093Z,100810.44
2024-04-24T22:21:02.935Z,100807.72
2024-04-24T22:23:30.030Z,100806.53
2024-04-24T22:25:57.056Z,100803.38
2024-04-24T22:28:23.829Z,100799.88
2024-04-24T22:30:50.518Z,100800.66
2024-04-24T22:33:17.285Z,100799.09
2024-04-24T22:35:43.995Z,100804.16
2024-04-24T22:38:12.140Z,100810.47
2024-04-24T22:40:39.427Z,100793.19
2024-04-24T22:43:06.064Z,100800.66
2024-04-24T22:45:32.710Z,100798.31
2024-04-24T22:47:59.513Z,100796.34
2024-04-24T22:50:26.264Z,100799.88
2024-04-24T22:52:52.985Z,100802.63
2024-04-24T22:55:20.166Z,100797.13
2024-04-24T22:57:47.169Z,100805.00
2024-04-24T23:00:18.769Z,100795.97
2024-04-24T23:02:45.616Z,100802.25
2024-04-24T23:05:12.532Z,100789.28
2024-04-24T23:07:39.347Z,100783.81
2024-04-24T23:10:06.277Z,100786.19
2024-04-24T23:12:32.917Z,100792.06
2024-04-24T23:14:59.574Z,100785.00
2024-04-24T23:17:26.511Z,100786.19
2024-04-24T23:19:53.219Z,100784.63
2024-04-24T23:22:19.859Z,100792.09
2024-04-24T23:24:46.623Z,100789.72
2024-04-24T23:27:13.305Z,100785.00
2024-04-24T23:29:40.045Z,100783.84
2024-04-24T23:32:06.830Z,100784.25
2024-04-24T23:34:33.541Z,100786.97
2024-04-24T23:37:00.159Z,100782.25
2024-04-24T23:39:26.824Z,100784.63
2024-04-24T23:41:53.531Z,100785.00
2024-04-24T23:44:20.239Z,100769.34
2024-04-24T23:46:51.708Z,100766.97
2024-04-24T23:49:18.400Z,100767.34
2024-04-24T23:51:45.091Z,100767.38
2024-04-24T23:54:11.856Z,100762.66
2024-04-24T23:56:38.794Z,100759.53
2024-04-24T23:59:05.605Z,100760.72
